Time,TemperatureF,DewpointF,PressureIn,WindDirection,WindDirectionDegrees,WindSpeedMPH,WindSpeedGustMPH,Humidity,HourlyPrecipIn,Conditions,Clouds,dailyrainin,SoftwareType,DateUTC
2013-03-06 00:02:00,50.6,46.6,29.84,SE,142,6.0,0.0,86,0.04,,,0.00,WeatherTracker,2013-03-06 08:02:00,
2013-03-06 00:07:00,50.6,46.6,29.84,SSW,195,6.0,0.0,86,0.04,,,0.00,WeatherTracker,2013-03-06 08:07:00,
2013-03-06 00:12:00,50.5,46.5,29.84,South,172,3.0,0.0,86,0.04,,,0.00,WeatherTracker,2013-03-06 08:12:00,
2013-03-06 00:17:00,50.5,46.5,29.84,ESE,119,8.0,0.0,86,0.04,,,0.00,WeatherTracker,2013-03-06 08:17:00,
2013-03-06 00:22:00,50.5,46.5,29.84,East,98,7.0,0.0,86,0.04,,,0.00,WeatherTracker,2013-03-06 08:22:00,
2013-03-06 00:27:00,50.5,46.5,29.84,South,176,10.0,0.0,86,0.04,,,0.01,WeatherTracker,2013-03-06 08:27:00,
2013-03-06 00:32:00,50.5,46.5,29.84,SSE,165,4.0,0.0,86,0.04,,,0.01,WeatherTracker,2013-03-06 08:32:00,
2013-03-06 00:37:00,50.6,46.6,29.84,SE,135,11.0,0.0,86,0.03,,,0.01,WeatherTracker,2013-03-06 08:37:00,
2013-03-06 00:42:00,50.8,46.5,29.85,West,278,4.0,0.0,85,0.03,,,0.01,WeatherTracker,2013-03-06 08:42:00,
2013-03-06 00:47:00,50.7,46.4,29.85,South,188,14.0,0.0,85,0.02,,,0.01,WeatherTracker,2013-03-06 08:47:00,
2013-03-06 00:52:00,50.6,46.6,29.85,SW,218,6.0,0.0,86,0.01,,,0.01,WeatherTracker,2013-03-06 08:52:00,
2013-03-06 00:58:00,50.4,46.4,29.85,SSW,197,5.0,0.0,86,0.03,,,0.03,WeatherTracker,2013-03-06 08:58:00,
2013-03-06 01:03:00,50.3,46.6,29.85,SE,141,9.0,0.0,87,0.04,,,0.04,WeatherTracker,2013-03-06 09:03:00,
2013-03-06 01:08:00,50.2,46.8,29.85,ESE,113,2.0,0.0,88,0.06,,,0.06,WeatherTracker,2013-03-06 09:08:00,
2013-03-06 01:13:00,50.2,46.8,29.85,SE,135,1.0,0.0,88,0.07,,,0.07,WeatherTracker,2013-03-06 09:13:00,
2013-03-06 01:18:00,50.3,47.2,29.85,ENE,70,3.0,0.0,89,0.07,,,0.07,WeatherTracker,2013-03-06 09:18:00,
2013-03-06 01:23:00,50.9,47.8,29.85,SSW,207,9.0,0.0,89,0.07,,,0.07,WeatherTracker,2013-03-06 09:23:00,
2013-03-06 01:28:00,51.4,48.0,29.85,WSW,238,10.0,0.0,88,0.06,,,0.07,WeatherTracker,2013-03-06 09:28:00,
2013-03-06 01:33:00,51.6,47.9,29.85,ESE,120,4.0,0.0,87,0.06,,,0.07,WeatherTracker,2013-03-06 09:33:00,
2013-03-06 01:38:00,51.7,48.0,29.85,South,191,7.0,0.0,87,0.06,,,0.07,WeatherTracker,2013-03-06 09:38:00,
2013-03-06 01:43:00,51.7,48.0,29.85,SW,233,4.0,0.0,87,0.06,,,0.07,WeatherTracker,2013-03-06 09:43:00,
2013-03-06 01:48:00,51.8,48.4,29.85,SW,233,13.0,0.0,88,0.06,,,0.07,WeatherTracker,2013-03-06 09:48:00,
2013-03-06 01:53:00,51.9,48.5,29.86,SW,225,15.0,0.0,88,0.07,,,0.08,WeatherTracker,2013-03-06 09:53:00,
2013-03-06 01:58:00,51.4,47.0,29.86,WSW,256,5.0,0.0,85,0.07,,,0.10,WeatherTracker,2013-03-06 09:58:00,
2013-03-06 02:03:00,50.8,46.1,29.86,SW,236,21.0,0.0,84,0.06,,,0.10,WeatherTracker,2013-03-06 10:03:00,
2013-03-06 02:08:00,50.7,46.4,29.86,SSW,207,10.0,0.0,85,0.04,,,0.10,WeatherTracker,2013-03-06 10:08:00,
2013-03-06 02:13:00,50.8,46.8,29.86,SSW,210,4.0,0.0,86,0.03,,,0.10,WeatherTracker,2013-03-06 10:13:00,
2013-03-06 02:18:00,50.8,46.8,29.86,SW,228,14.0,0.0,86,0.03,,,0.10,WeatherTracker,2013-03-06 10:18:00,
2013-03-06 02:23:00,51.1,46.7,29.86,SW,232,15.0,0.0,85,0.03,,,0.10,WeatherTracker,2013-03-06 10:23:00,
2013-03-06 02:28:00,51.4,47.4,29.86,SSW,205,14.0,0.0,86,0.03,,,0.10,WeatherTracker,2013-03-06 10:28:00,
2013-03-06 02:33:00,51.5,47.8,29.86,SW,214,12.0,0.0,87,0.03,,,0.10,WeatherTracker,2013-03-06 10:33:00,
2013-03-06 02:38:00,51.6,48.2,29.86,SW,227,14.0,0.0,88,0.03,,,0.10,WeatherTracker,2013-03-06 10:38:00,
2013-03-06 02:43:00,51.6,48.2,29.86,SW,228,9.0,0.0,88,0.03,,,0.10,WeatherTracker,2013-03-06 10:43:00,
2013-03-06 02:48:00,51.6,47.9,29.86,SSW,212,15.0,0.0,87,0.03,,,0.10,WeatherTracker,2013-03-06 10:48:00,
2013-03-06 02:54:00,51.6,47.6,29.87,SSW,208,7.0,0.0,86,0.02,,,0.10,WeatherTracker,2013-03-06 10:54:00,
2013-03-06 02:59:00,51.5,46.8,29.87,SW,214,8.0,0.0,84,0.00,,,0.10,WeatherTracker,2013-03-06 10:59:00,
2013-03-06 03:04:00,51.5,46.8,29.86,WSW,253,6.0,0.0,84,0.00,,,0.10,WeatherTracker,2013-03-06 11:04:00,
2013-03-06 03:09:00,51.5,46.8,29.86,SW,222,9.0,0.0,84,0.00,,,0.10,WeatherTracker,2013-03-06 11:09:00,
2013-03-06 03:14:00,51.5,46.8,29.87,South,185,5.0,0.0,84,0.00,,,0.10,WeatherTracker,2013-03-06 11:14:00,
2013-03-06 03:19:00,51.6,47.2,29.87,SW,216,12.0,0.0,85,0.00,,,0.10,WeatherTracker,2013-03-06 11:19:00,
2013-03-06 03:24:00,51.7,47.3,29.87,NNW,336,3.0,0.0,85,0.00,,,0.10,WeatherTracker,2013-03-06 11:24:00,
2013-03-06 03:29:00,51.8,47.1,29.87,WSW,238,13.0,0.0,84,0.00,,,0.10,WeatherTracker,2013-03-06 11:29:00,
2013-03-06 03:34:00,51.8,46.5,29.87,WSW,249,6.0,0.0,82,0.00,,,0.10,WeatherTracker,2013-03-06 11:34:00,
2013-03-06 03:39:00,51.9,46.6,29.88,SW,233,13.0,0.0,82,0.00,,,0.10,WeatherTracker,2013-03-06 11:39:00,
2013-03-06 03:44:00,51.9,46.6,29.88,WSW,238,6.0,0.0,82,0.00,,,0.10,WeatherTracker,2013-03-06 11:44:00,
2013-03-06 03:49:00,51.7,46.4,29.88,SW,228,9.0,0.0,82,0.00,,,0.10,WeatherTracker,2013-03-06 11:49:00,
2013-03-06 03:54:00,51.6,46.6,29.89,SSW,212,5.0,0.0,83,0.00,,,0.10,WeatherTracker,2013-03-06 11:54:00,
2013-03-06 03:59:00,51.5,46.5,29.89,SSW,211,7.0,0.0,83,0.00,,,0.10,WeatherTracker,2013-03-06 11:59:00,
2013-03-06 04:04:00,51.4,46.4,29.89,SW,233,17.0,0.0,83,0.00,,,0.10,WeatherTracker,2013-03-06 12:04:00,
2013-03-06 04:09:00,51.1,45.5,29.89,SW,217,12.0,0.0,81,0.00,,,0.10,WeatherTracker,2013-03-06 12:09:00,
2013-03-06 04:14:00,51.0,45.0,29.89,West,262,17.0,0.0,80,0.00,,,0.10,WeatherTracker,2013-03-06 12:14:00,
2013-03-06 04:19:00,50.8,45.2,29.90,WSW,248,9.0,0.0,81,0.00,,,0.10,WeatherTracker,2013-03-06 12:19:00,
2013-03-06 04:24:00,50.7,45.1,29.90,SW,236,8.0,0.0,81,0.00,,,0.10,WeatherTracker,2013-03-06 12:24:00,
2013-03-06 04:29:00,50.7,45.1,29.90,WSW,252,11.0,0.0,81,0.00,,,0.10,WeatherTracker,2013-03-06 12:29:00,
2013-03-06 04:35:00,50.6,44.7,29.91,WSW,248,12.0,0.0,80,0.00,,,0.10,WeatherTracker,2013-03-06 12:35:00,
2013-03-06 04:40:00,50.5,44.6,29.91,WSW,237,5.0,0.0,80,0.00,,,0.10,WeatherTracker,2013-03-06 12:40:00,
2013-03-06 04:45:00,50.3,44.0,29.91,WSW,255,14.0,0.0,79,0.00,,,0.10,WeatherTracker,2013-03-06 12:45:00,
2013-03-06 04:50:00,50.2,43.9,29.91,SW,223,10.0,0.0,79,0.00,,,0.10,WeatherTracker,2013-03-06 12:50:00,
2013-03-06 04:55:00,50.1,44.2,29.92,West,270,11.0,0.0,80,0.00,,,0.10,WeatherTracker,2013-03-06 12:55:00,
2013-03-06 05:00:00,50.1,44.2,29.92,WSW,252,6.0,0.0,80,0.00,,,0.10,WeatherTracker,2013-03-06 13:00:00,
2013-03-06 05:05:00,50.0,44.1,29.92,West,277,7.0,0.0,80,0.00,,,0.10,WeatherTracker,2013-03-06 13:05:00,
2013-03-06 05:10:00,50.0,44.1,29.92,SW,236,14.0,0.0,80,0.00,,,0.10,WeatherTracker,2013-03-06 13:10:00,
2013-03-06 05:15:00,49.9,44.0,29.92,West,274,6.0,0.0,80,0.00,,,0.10,WeatherTracker,2013-03-06 13:15:00,
2013-03-06 05:20:00,49.9,44.0,29.92,WSW,243,14.0,0.0,80,0.00,,,0.10,WeatherTracker,2013-03-06 13:20:00,
2013-03-06 05:25:00,49.8,43.9,29.92,West,280,7.0,0.0,80,0.00,,,0.10,WeatherTracker,2013-03-06 13:25:00,
2013-03-06 05:30:00,49.7,43.8,29.92,WSW,242,14.0,0.0,80,0.00,,,0.10,WeatherTracker,2013-03-06 13:30:00,
2013-03-06 05:35:00,49.6,43.7,29.92,WSW,242,6.0,0.0,80,0.00,,,0.10,WeatherTracker,2013-03-06 13:35:00,
2013-03-06 05:40:00,49.6,43.7,29.92,SW,228,10.0,0.0,80,0.00,,,0.10,WeatherTracker,2013-03-06 13:40:00,
2013-03-06 05:45:00,49.5,43.6,29.92,WSW,252,6.0,0.0,80,0.00,,,0.10,WeatherTracker,2013-03-06 13:45:00,
2013-03-06 05:50:00,49.5,43.6,29.92,SW,223,8.0,0.0,80,0.00,,,0.10,WeatherTracker,2013-03-06 13:50:00,
2013-03-06 05:55:00,49.4,43.5,29.92,WSW,251,13.0,0.0,80,0.00,,,0.10,WeatherTracker,2013-03-06 13:55:00,
2013-03-06 06:00:00,49.4,43.5,29.92,WSW,246,7.0,0.0,80,0.00,,,0.10,WeatherTracker,2013-03-06 14:00:00,
2013-03-06 06:05:00,49.5,43.6,29.93,SW,224,9.0,0.0,80,0.00,,,0.10,WeatherTracker,2013-03-06 14:05:00,
2013-03-06 06:10:00,49.5,43.6,29.93,West,263,7.0,0.0,80,0.00,,,0.10,WeatherTracker,2013-03-06 14:10:00,
2013-03-06 06:15:00,49.5,43.6,29.93,WSW,242,16.0,0.0,80,0.00,,,0.10,WeatherTracker,2013-03-06 14:15:00,
2013-03-06 06:20:00,49.5,43.6,29.93,WSW,250,9.0,0.0,80,0.00,,,0.10,WeatherTracker,2013-03-06 14:20:00,
2013-03-06 06:25:00,49.5,43.6,29.94,West,271,6.0,0.0,80,0.00,,,0.10,WeatherTracker,2013-03-06 14:25:00,
2013-03-06 06:30:00,49.4,43.5,29.94,WSW,250,21.0,0.0,80,0.00,,,0.10,WeatherTracker,2013-03-06 14:30:00,
2013-03-06 06:36:00,49.4,43.2,29.94,West,271,10.0,0.0,79,0.00,,,0.10,WeatherTracker,2013-03-06 14:36:00,
2013-03-06 06:41:00,49.5,43.3,29.94,SW,236,9.0,0.0,79,0.00,,,0.10,WeatherTracker,2013-03-06 14:41:00,
2013-03-06 06:46:00,49.5,43.3,29.95,WSW,257,14.0,0.0,79,0.00,,,0.10,WeatherTracker,2013-03-06 14:46:00,
2013-03-06 06:51:00,49.6,43.0,29.95,WSW,243,9.0,0.0,78,0.00,,,0.10,WeatherTracker,2013-03-06 14:51:00,
2013-03-06 06:56:00,49.6,43.7,29.95,WNW,283,6.0,0.0,80,0.00,,,0.10,WeatherTracker,2013-03-06 14:56:00,
2013-03-06 07:01:00,49.5,43.9,29.95,SW,231,7.0,0.0,81,0.00,,,0.10,WeatherTracker,2013-03-06 15:01:00,
2013-03-06 07:06:00,49.5,44.2,29.96,SW,224,11.0,0.0,82,0.00,,,0.10,WeatherTracker,2013-03-06 15:06:00,
2013-03-06 07:11:00,49.6,44.3,29.96,WSW,244,7.0,0.0,82,0.00,,,0.10,WeatherTracker,2013-03-06 15:11:00,
2013-03-06 07:16:00,49.7,44.4,29.97,WSW,249,7.0,0.0,82,0.00,,,0.10,WeatherTracker,2013-03-06 15:16:00,
2013-03-06 07:21:00,49.8,44.8,29.96,WSW,237,8.0,0.0,83,0.00,,,0.10,WeatherTracker,2013-03-06 15:21:00,
2013-03-06 07:26:00,50.0,45.0,29.97,SSW,208,11.0,0.0,83,0.00,,,0.10,WeatherTracker,2013-03-06 15:26:00,
2013-03-06 07:31:00,50.0,45.0,29.97,SW,233,5.0,0.0,83,0.00,,,0.10,WeatherTracker,2013-03-06 15:31:00,
2013-03-06 07:36:00,50.1,44.8,29.97,SSE,159,6.0,0.0,82,0.00,,,0.10,WeatherTracker,2013-03-06 15:36:00,
2013-03-06 07:41:00,50.2,44.9,29.97,WSW,240,7.0,0.0,82,0.00,,,0.10,WeatherTracker,2013-03-06 15:41:00,
2013-03-06 07:46:00,50.3,45.0,29.98,SW,215,7.0,0.0,82,0.00,,,0.10,WeatherTracker,2013-03-06 15:46:00,
2013-03-06 07:51:00,50.3,44.7,29.98,WSW,240,4.0,0.0,81,0.00,,,0.10,WeatherTracker,2013-03-06 15:51:00,
2013-03-06 07:56:00,50.4,44.5,29.98,WSW,246,1.0,0.0,80,0.00,,,0.10,WeatherTracker,2013-03-06 15:56:00,
2013-03-06 08:01:00,50.6,44.7,29.98,WNW,300,5.0,0.0,80,0.00,,,0.10,WeatherTracker,2013-03-06 16:01:00,
2013-03-06 08:06:00,50.7,44.4,29.99,WSW,243,7.0,0.0,79,0.00,,,0.10,WeatherTracker,2013-03-06 16:06:00,
2013-03-06 08:11:00,50.9,44.3,30.00,SW,233,2.0,0.0,78,0.00,,,0.10,WeatherTracker,2013-03-06 16:11:00,
2013-03-06 08:16:00,51.0,44.4,30.00,SSW,197,8.0,0.0,78,0.00,,,0.10,WeatherTracker,2013-03-06 16:16:00,
2013-03-06 08:21:00,51.0,44.4,30.00,SW,219,3.0,0.0,78,0.00,,,0.10,WeatherTracker,2013-03-06 16:21:00,
2013-03-06 08:27:00,51.2,44.6,30.00,SSE,166,1.0,0.0,78,0.00,,,0.10,WeatherTracker,2013-03-06 16:27:00,
2013-03-06 08:32:00,51.4,44.4,30.00,SW,228,8.0,0.0,77,0.00,,,0.10,WeatherTracker,2013-03-06 16:32:00,
2013-03-06 08:37:00,51.8,45.2,30.01,SW,231,4.0,0.0,78,0.00,,,0.10,WeatherTracker,2013-03-06 16:37:00,
2013-03-06 08:42:00,51.7,44.4,30.01,WSW,246,4.0,0.0,76,0.00,,,0.10,WeatherTracker,2013-03-06 16:42:00,
2013-03-06 08:47:00,52.0,45.0,30.01,SSW,197,6.0,0.0,77,0.00,,,0.10,WeatherTracker,2013-03-06 16:47:00,
2013-03-06 08:52:00,51.8,44.5,30.02,SW,232,10.0,0.0,76,0.00,,,0.10,WeatherTracker,2013-03-06 16:52:00,
2013-03-06 08:57:00,51.8,44.8,30.02,SSW,208,4.0,0.0,77,0.00,,,0.10,WeatherTracker,2013-03-06 16:57:00,
2013-03-06 09:02:00,52.5,45.8,30.02,South,170,4.0,0.0,78,0.00,,,0.10,WeatherTracker,2013-03-06 17:02:00,
2013-03-06 09:07:00,53.1,45.7,30.02,SSW,203,9.0,0.0,76,0.00,,,0.10,WeatherTracker,2013-03-06 17:07:00,
2013-03-06 09:12:00,53.0,44.6,30.02,WSW,237,4.0,0.0,73,0.00,,,0.10,WeatherTracker,2013-03-06 17:12:00,
2013-03-06 09:17:00,52.6,43.1,30.02,SW,227,9.0,0.0,70,0.00,,,0.10,WeatherTracker,2013-03-06 17:17:00,
2013-03-06 09:22:00,52.2,42.7,30.03,SSW,208,4.0,0.0,70,0.00,,,0.10,WeatherTracker,2013-03-06 17:22:00,
2013-03-06 09:27:00,52.3,43.5,30.03,SW,217,4.0,0.0,72,0.00,,,0.10,WeatherTracker,2013-03-06 17:27:00,
2013-03-06 09:32:00,52.6,43.8,30.03,SW,230,5.0,0.0,72,0.00,,,0.10,WeatherTracker,2013-03-06 17:32:00,
2013-03-06 09:37:00,52.5,43.7,30.03,WSW,239,6.0,0.0,72,0.00,,,0.10,WeatherTracker,2013-03-06 17:37:00,
2013-03-06 09:42:00,52.9,43.8,30.03,SSW,201,10.0,0.0,71,0.00,,,0.10,WeatherTracker,2013-03-06 17:42:00,
2013-03-06 09:47:00,52.5,43.7,30.03,SW,222,7.0,0.0,72,0.00,,,0.10,WeatherTracker,2013-03-06 17:47:00,
2013-03-06 09:52:00,52.4,44.0,30.03,SW,218,9.0,0.0,73,0.00,,,0.10,WeatherTracker,2013-03-06 17:52:00,
2013-03-06 09:57:00,52.5,43.4,30.04,SW,229,13.0,0.0,71,0.00,,,0.10,WeatherTracker,2013-03-06 17:57:00,
2013-03-06 10:02:00,52.6,43.5,30.04,SW,235,12.0,0.0,71,0.00,,,0.10,WeatherTracker,2013-03-06 18:02:00,
2013-03-06 10:07:00,52.6,43.1,30.04,South,179,6.0,0.0,70,0.00,,,0.10,WeatherTracker,2013-03-06 18:07:00,
2013-03-06 10:13:00,52.7,43.6,30.04,SW,229,3.0,0.0,71,0.00,,,0.10,WeatherTracker,2013-03-06 18:13:00,
2013-03-06 10:18:00,53.0,43.1,30.04,SSW,207,7.0,0.0,69,0.00,,,0.10,WeatherTracker,2013-03-06 18:18:00,
2013-03-06 10:23:00,53.0,42.3,30.05,SSW,210,12.0,0.0,67,0.00,,,0.10,WeatherTracker,2013-03-06 18:23:00,
2013-03-06 10:28:00,52.8,41.8,30.05,SW,233,14.0,0.0,66,0.00,,,0.10,WeatherTracker,2013-03-06 18:28:00,
2013-03-06 10:33:00,52.8,41.8,30.05,WSW,249,12.0,0.0,66,0.00,,,0.10,WeatherTracker,2013-03-06 18:33:00,
2013-03-06 10:38:00,53.0,41.9,30.05,SW,219,3.0,0.0,66,0.00,,,0.10,WeatherTracker,2013-03-06 18:38:00,
2013-03-06 10:43:00,53.2,42.1,30.05,SSW,209,4.0,0.0,66,0.00,,,0.10,WeatherTracker,2013-03-06 18:43:00,
2013-03-06 10:48:00,53.2,42.1,30.05,SW,224,7.0,0.0,66,0.00,,,0.10,WeatherTracker,2013-03-06 18:48:00,
2013-03-06 10:53:00,53.4,42.3,30.05,WSW,238,6.0,0.0,66,0.00,,,0.10,WeatherTracker,2013-03-06 18:53:00,
2013-03-06 10:58:00,53.7,42.6,30.05,SW,228,8.0,0.0,66,0.00,,,0.10,WeatherTracker,2013-03-06 18:58:00,
2013-03-06 11:03:00,53.6,42.5,30.05,SW,229,6.0,0.0,66,0.00,,,0.10,WeatherTracker,2013-03-06 19:03:00,
2013-03-06 11:08:00,53.4,41.9,30.05,South,190,6.0,0.0,65,0.00,,,0.10,WeatherTracker,2013-03-06 19:08:00,
2013-03-06 11:13:00,53.4,41.9,30.05,SW,225,10.0,0.0,65,0.00,,,0.10,WeatherTracker,2013-03-06 19:13:00,
2013-03-06 11:18:00,53.2,41.7,30.05,WSW,239,10.0,0.0,65,0.00,,,0.10,WeatherTracker,2013-03-06 19:18:00,
2013-03-06 11:23:00,53.2,41.7,30.05,SW,236,4.0,0.0,65,0.00,,,0.10,WeatherTracker,2013-03-06 19:23:00,
2013-03-06 11:28:00,53.4,41.5,30.05,SW,229,8.0,0.0,64,0.00,,,0.10,WeatherTracker,2013-03-06 19:28:00,
2013-03-06 11:33:00,53.5,41.2,30.05,SSW,198,10.0,0.0,63,0.00,,,0.10,WeatherTracker,2013-03-06 19:33:00,
2013-03-06 11:38:00,53.6,42.1,30.06,SSE,149,4.0,0.0,65,0.00,,,0.10,WeatherTracker,2013-03-06 19:38:00,
2013-03-06 11:43:00,53.5,42.8,30.06,SSW,211,8.0,0.0,67,0.00,,,0.10,WeatherTracker,2013-03-06 19:43:00,
2013-03-06 11:48:00,53.6,42.9,30.06,SW,228,8.0,0.0,67,0.00,,,0.10,WeatherTracker,2013-03-06 19:48:00,
2013-03-06 11:53:00,53.6,42.9,30.05,SW,218,5.0,0.0,67,0.00,,,0.10,WeatherTracker,2013-03-06 19:53:00,
2013-03-06 11:59:00,53.5,42.4,30.05,SW,214,7.0,0.0,66,0.00,,,0.10,WeatherTracker,2013-03-06 19:59:00,
2013-03-06 12:04:00,53.6,42.5,30.05,WSW,257,8.0,0.0,66,0.00,,,0.10,WeatherTracker,2013-03-06 20:04:00,
2013-03-06 12:09:00,53.7,42.2,30.05,WSW,239,10.0,0.0,65,0.00,,,0.10,WeatherTracker,2013-03-06 20:09:00,
2013-03-06 12:14:00,53.8,41.5,30.05,SSE,162,8.0,0.0,63,0.00,,,0.10,WeatherTracker,2013-03-06 20:14:00,
2013-03-06 12:19:00,54.3,42.4,30.05,SSE,167,6.0,0.0,64,0.00,,,0.10,WeatherTracker,2013-03-06 20:19:00,
2013-03-06 12:24:00,54.2,42.7,30.05,WSW,255,5.0,0.0,65,0.00,,,0.10,WeatherTracker,2013-03-06 20:24:00,
2013-03-06 12:29:00,54.4,41.7,30.05,South,180,9.0,0.0,62,0.00,,,0.10,WeatherTracker,2013-03-06 20:29:00,
2013-03-06 12:34:00,54.1,42.2,30.05,SSW,211,6.0,0.0,64,0.00,,,0.10,WeatherTracker,2013-03-06 20:34:00,
2013-03-06 12:39:00,53.6,42.9,30.05,SW,218,9.0,0.0,67,0.00,,,0.10,WeatherTracker,2013-03-06 20:39:00,
2013-03-06 12:44:00,53.7,42.6,30.05,SW,229,6.0,0.0,66,0.00,,,0.10,WeatherTracker,2013-03-06 20:44:00,
2013-03-06 12:49:00,54.0,43.3,30.05,SW,215,10.0,0.0,67,0.00,,,0.10,WeatherTracker,2013-03-06 20:49:00,
2013-03-06 12:54:00,53.8,43.1,30.05,SW,215,5.0,0.0,67,0.00,,,0.10,WeatherTracker,2013-03-06 20:54:00,
2013-03-06 12:59:00,53.9,43.6,30.05,WNW,284,6.0,0.0,68,0.00,,,0.10,WeatherTracker,2013-03-06 20:59:00,
2013-03-06 13:04:00,53.7,42.2,30.05,WSW,243,7.0,0.0,65,0.00,,,0.10,WeatherTracker,2013-03-06 21:04:00,
2013-03-06 13:09:00,53.7,43.0,30.05,WSW,249,8.0,0.0,67,0.00,,,0.10,WeatherTracker,2013-03-06 21:09:00,
2013-03-06 13:14:00,53.5,43.2,30.05,SW,235,11.0,0.0,68,0.00,,,0.10,WeatherTracker,2013-03-06 21:14:00,
2013-03-06 13:19:00,53.4,42.7,30.05,WSW,252,9.0,0.0,67,0.00,,,0.10,WeatherTracker,2013-03-06 21:19:00,
2013-03-06 13:24:00,53.4,43.1,30.05,SW,236,7.0,0.0,68,0.00,,,0.10,WeatherTracker,2013-03-06 21:24:00,
2013-03-06 13:30:00,53.4,42.7,30.05,SW,222,15.0,0.0,67,0.00,,,0.10,WeatherTracker,2013-03-06 21:30:00,
2013-03-06 13:35:00,53.5,42.4,30.04,WSW,248,8.0,0.0,66,0.00,,,0.10,WeatherTracker,2013-03-06 21:35:00,
2013-03-06 13:40:00,53.5,42.4,30.04,SW,228,13.0,0.0,66,0.00,,,0.10,WeatherTracker,2013-03-06 21:40:00,
2013-03-06 13:45:00,53.4,42.7,30.04,SSW,207,8.0,0.0,67,0.00,,,0.10,WeatherTracker,2013-03-06 21:45:00,
2013-03-06 13:50:00,53.6,42.1,30.04,WNW,283,7.0,0.0,65,0.00,,,0.10,WeatherTracker,2013-03-06 21:50:00,
2013-03-06 13:55:00,53.7,43.0,30.03,SW,222,13.0,0.0,67,0.00,,,0.10,WeatherTracker,2013-03-06 21:55:00,
2013-03-06 14:00:00,54.0,42.9,30.03,WSW,250,7.0,0.0,66,0.00,,,0.10,WeatherTracker,2013-03-06 22:00:00,
2013-03-06 14:05:00,54.2,42.3,30.03,SSW,211,8.0,0.0,64,0.00,,,0.10,WeatherTracker,2013-03-06 22:05:00,
2013-03-06 14:10:00,54.5,42.2,30.03,SW,233,11.0,0.0,63,0.00,,,0.10,WeatherTracker,2013-03-06 22:10:00,
2013-03-06 14:15:00,54.5,42.2,30.03,SW,229,8.0,0.0,63,0.00,,,0.10,WeatherTracker,2013-03-06 22:15:00,
2013-03-06 14:20:00,54.5,41.7,30.04,WSW,255,7.0,0.0,62,0.00,,,0.10,WeatherTracker,2013-03-06 22:20:00,
2013-03-06 14:25:00,54.6,42.3,30.03,SW,231,6.0,0.0,63,0.00,,,0.10,WeatherTracker,2013-03-06 22:25:00,
2013-03-06 14:30:00,54.5,42.2,30.04,SSW,211,8.0,0.0,63,0.00,,,0.10,WeatherTracker,2013-03-06 22:30:00,
2013-03-06 14:35:00,54.6,42.7,30.03,SW,233,6.0,0.0,64,0.00,,,0.10,WeatherTracker,2013-03-06 22:35:00,
2013-03-06 14:40:00,54.5,41.7,30.03,SW,223,10.0,0.0,62,0.00,,,0.10,WeatherTracker,2013-03-06 22:40:00,
2013-03-06 14:45:00,54.4,41.7,30.03,WSW,249,9.0,0.0,62,0.00,,,0.10,WeatherTracker,2013-03-06 22:45:00,
2013-03-06 14:50:00,54.5,41.7,30.04,SW,215,7.0,0.0,62,0.00,,,0.10,WeatherTracker,2013-03-06 22:50:00,
2013-03-06 14:55:00,54.8,42.0,30.04,SSW,207,5.0,0.0,62,0.00,,,0.10,WeatherTracker,2013-03-06 22:55:00,
2013-03-06 15:00:00,55.2,42.0,30.04,SSW,212,5.0,0.0,61,0.00,,,0.10,WeatherTracker,2013-03-06 23:00:00,
2013-03-06 15:05:00,54.9,42.1,30.03,SW,234,8.0,0.0,62,0.00,,,0.10,WeatherTracker,2013-03-06 23:05:00,
2013-03-06 15:10:00,54.4,41.7,30.04,SSW,209,6.0,0.0,62,0.00,,,0.10,WeatherTracker,2013-03-06 23:10:00,
2013-03-06 15:15:00,54.4,42.1,30.04,SW,226,5.0,0.0,63,0.00,,,0.10,WeatherTracker,2013-03-06 23:15:00,
2013-03-06 15:20:00,54.2,41.5,30.04,WNW,283,5.0,0.0,62,0.00,,,0.10,WeatherTracker,2013-03-06 23:20:00,
2013-03-06 15:25:00,54.8,42.0,30.04,WSW,253,2.0,0.0,62,0.00,,,0.10,WeatherTracker,2013-03-06 23:25:00,
2013-03-06 15:30:00,55.1,42.3,30.04,WSW,242,5.0,0.0,62,0.00,,,0.10,WeatherTracker,2013-03-06 23:30:00,
2013-03-06 15:35:00,54.7,41.1,30.04,SW,225,5.0,0.0,60,0.00,,,0.10,WeatherTracker,2013-03-06 23:35:00,
2013-03-06 15:40:00,54.4,42.1,30.04,WSW,258,3.0,0.0,63,0.00,,,0.10,WeatherTracker,2013-03-06 23:40:00,
2013-03-06 15:46:00,54.5,42.2,30.04,WSW,242,5.0,0.0,63,0.00,,,0.10,WeatherTracker,2013-03-06 23:46:00,
2013-03-06 15:51:00,53.9,41.2,30.04,SSW,212,5.0,0.0,62,0.00,,,0.10,WeatherTracker,2013-03-06 23:51:00,
2013-03-06 15:56:00,53.9,42.0,30.04,SW,224,9.0,0.0,64,0.00,,,0.10,WeatherTracker,2013-03-06 23:56:00,
2013-03-06 16:01:00,53.9,42.0,30.04,WSW,250,4.0,0.0,64,0.00,,,0.10,WeatherTracker,2013-03-07 00:01:00,
2013-03-06 16:06:00,53.8,42.3,30.04,West,259,7.0,0.0,65,0.00,,,0.10,WeatherTracker,2013-03-07 00:06:00,
2013-03-06 16:11:00,54.1,42.6,30.04,SSW,194,3.0,0.0,65,0.00,,,0.10,WeatherTracker,2013-03-07 00:11:00,
2013-03-06 16:16:00,54.0,42.5,30.04,SW,226,7.0,0.0,65,0.00,,,0.10,WeatherTracker,2013-03-07 00:16:00,
2013-03-06 16:21:00,53.7,42.6,30.04,WSW,248,5.0,0.0,66,0.00,,,0.10,WeatherTracker,2013-03-07 00:21:00,
2013-03-06 16:26:00,53.6,42.9,30.03,SSW,197,5.0,0.0,67,0.00,,,0.10,WeatherTracker,2013-03-07 00:26:00,
2013-03-06 16:31:00,53.7,42.2,30.03,WSW,248,6.0,0.0,65,0.00,,,0.10,WeatherTracker,2013-03-07 00:31:00,
2013-03-06 16:36:00,53.4,43.1,30.03,WSW,257,0.0,0.0,68,0.00,,,0.10,WeatherTracker,2013-03-07 00:36:00,
2013-03-06 16:41:00,53.3,43.0,30.03,West,260,3.0,0.0,68,0.00,,,0.10,WeatherTracker,2013-03-07 00:41:00,
2013-03-06 16:46:00,53.2,42.9,30.03,SSW,207,0.0,0.0,68,0.00,,,0.10,WeatherTracker,2013-03-07 00:46:00,
2013-03-06 16:51:00,53.2,42.5,30.03,WSW,257,2.0,0.0,67,0.00,,,0.10,WeatherTracker,2013-03-07 00:51:00,
2013-03-06 16:56:00,53.1,41.6,30.03,SW,225,5.0,0.0,65,0.00,,,0.10,WeatherTracker,2013-03-07 00:56:00,
2013-03-06 17:01:00,52.9,42.2,30.03,SW,215,3.0,0.0,67,0.00,,,0.10,WeatherTracker,2013-03-07 01:01:00,
2013-03-06 17:06:00,52.8,41.8,30.02,SW,231,6.0,0.0,66,0.00,,,0.10,WeatherTracker,2013-03-07 01:06:00,
2013-03-06 17:11:00,52.6,42.0,30.02,WSW,237,2.0,0.0,67,0.00,,,0.10,WeatherTracker,2013-03-07 01:11:00,
2013-03-06 17:17:00,52.4,42.2,30.02,SW,218,2.0,0.0,68,0.00,,,0.10,WeatherTracker,2013-03-07 01:17:00,
2013-03-06 17:21:00,52.3,42.1,30.02,SSW,213,4.0,0.0,68,0.00,,,0.10,WeatherTracker,2013-03-07 01:21:00,
2013-03-06 17:27:00,52.4,42.5,30.02,SW,217,4.0,0.0,69,0.00,,,0.10,WeatherTracker,2013-03-07 01:27:00,
2013-03-06 17:32:00,52.4,42.5,30.02,WSW,246,4.0,0.0,69,0.00,,,0.10,WeatherTracker,2013-03-07 01:32:00,
2013-03-06 17:37:00,52.1,42.6,30.02,WSW,245,3.0,0.0,70,0.00,,,0.10,WeatherTracker,2013-03-07 01:37:00,
2013-03-06 17:42:00,52.0,42.5,30.02,WSW,250,3.0,0.0,70,0.00,,,0.10,WeatherTracker,2013-03-07 01:42:00,
2013-03-06 17:47:00,51.9,42.4,30.02,WSW,244,4.0,0.0,70,0.00,,,0.10,WeatherTracker,2013-03-07 01:47:00,
2013-03-06 17:52:00,51.8,42.7,30.02,SW,222,6.0,0.0,71,0.00,,,0.10,WeatherTracker,2013-03-07 01:52:00,
2013-03-06 17:57:00,51.6,42.5,30.02,WSW,248,4.0,0.0,71,0.00,,,0.10,WeatherTracker,2013-03-07 01:57:00,
2013-03-06 18:02:00,51.6,42.9,30.02,WSW,238,5.0,0.0,72,0.00,,,0.10,WeatherTracker,2013-03-07 02:02:00,
2013-03-06 18:07:00,51.5,43.1,30.02,SW,236,4.0,0.0,73,0.00,,,0.10,WeatherTracker,2013-03-07 02:07:00,
2013-03-06 18:12:00,51.3,42.9,30.02,SW,236,1.0,0.0,73,0.00,,,0.10,WeatherTracker,2013-03-07 02:12:00,
2013-03-06 18:17:00,51.2,42.8,30.02,WSW,250,4.0,0.0,73,0.00,,,0.10,WeatherTracker,2013-03-07 02:17:00,
2013-03-06 18:22:00,51.1,43.1,30.02,SSW,204,1.0,0.0,74,0.00,,,0.10,WeatherTracker,2013-03-07 02:22:00,
2013-03-06 18:27:00,51.0,43.4,30.02,SW,218,4.0,0.0,75,0.00,,,0.10,WeatherTracker,2013-03-07 02:27:00,
2013-03-06 18:32:00,50.9,43.6,30.01,SW,222,3.0,0.0,76,0.00,,,0.10,WeatherTracker,2013-03-07 02:32:00,
2013-03-06 18:37:00,50.8,43.5,30.01,WSW,246,5.0,0.0,76,0.00,,,0.10,WeatherTracker,2013-03-07 02:37:00,
2013-03-06 18:42:00,50.6,43.7,30.01,SW,218,0.0,0.0,77,0.00,,,0.10,WeatherTracker,2013-03-07 02:42:00,
2013-03-06 18:47:00,50.5,43.6,30.01,SW,236,5.0,0.0,77,0.00,,,0.10,WeatherTracker,2013-03-07 02:47:00,
2013-03-06 18:52:00,50.4,43.5,30.01,SSE,167,2.0,0.0,77,0.00,,,0.10,WeatherTracker,2013-03-07 02:52:00,
2013-03-06 18:57:00,50.4,43.5,30.01,SW,218,1.0,0.0,77,0.00,,,0.10,WeatherTracker,2013-03-07 02:57:00,
2013-03-06 19:02:00,50.3,43.7,30.01,SW,215,4.0,0.0,78,0.00,,,0.10,WeatherTracker,2013-03-07 03:02:00,
2013-03-06 19:07:00,50.2,43.6,30.01,SSW,195,2.0,0.0,78,0.00,,,0.10,WeatherTracker,2013-03-07 03:07:00,
2013-03-06 19:12:00,50.1,43.5,30.01,SW,236,2.0,0.0,78,0.00,,,0.10,WeatherTracker,2013-03-07 03:12:00,
2013-03-06 19:17:00,50.1,43.5,30.01,SW,230,3.0,0.0,78,0.00,,,0.10,WeatherTracker,2013-03-07 03:17:00,
2013-03-06 19:22:00,50.0,43.4,30.01,WSW,239,4.0,0.0,78,0.00,,,0.10,WeatherTracker,2013-03-07 03:22:00,
2013-03-06 19:27:00,50.0,43.4,30.01,WSW,248,0.0,0.0,78,0.00,,,0.10,WeatherTracker,2013-03-07 03:27:00,
2013-03-06 19:32:00,49.9,43.3,30.01,WSW,240,2.0,0.0,78,0.00,,,0.10,WeatherTracker,2013-03-07 03:32:00,
2013-03-06 19:37:00,49.8,43.2,30.02,WNW,300,1.0,0.0,78,0.00,,,0.10,WeatherTracker,2013-03-07 03:37:00,
2013-03-06 19:43:00,49.8,43.6,30.02,SW,232,2.0,0.0,79,0.00,,,0.10,WeatherTracker,2013-03-07 03:43:00,
2013-03-06 19:48:00,49.7,43.1,30.01,WSW,257,3.0,0.0,78,0.00,,,0.10,WeatherTracker,2013-03-07 03:48:00,
2013-03-06 19:53:00,49.7,43.1,30.01,WSW,250,2.0,0.0,78,0.00,,,0.10,WeatherTracker,2013-03-07 03:53:00,
2013-03-06 19:58:00,49.7,43.1,30.01,WSW,244,3.0,0.0,78,0.00,,,0.10,WeatherTracker,2013-03-07 03:58:00,
2013-03-06 20:03:00,49.7,43.1,30.01,SW,231,2.0,0.0,78,0.00,,,0.10,WeatherTracker,2013-03-07 04:03:00,
2013-03-06 20:08:00,49.7,43.1,30.01,WSW,239,2.0,0.0,78,0.00,,,0.10,WeatherTracker,2013-03-07 04:08:00,
2013-03-06 20:13:00,49.7,43.5,30.01,SW,228,5.0,0.0,79,0.00,,,0.10,WeatherTracker,2013-03-07 04:13:00,
2013-03-06 20:18:00,49.6,43.4,30.01,WSW,246,4.0,0.0,79,0.00,,,0.10,WeatherTracker,2013-03-07 04:18:00,
2013-03-06 20:23:00,49.5,43.3,30.01,WSW,237,5.0,0.0,79,0.00,,,0.10,WeatherTracker,2013-03-07 04:23:00,
2013-03-06 20:28:00,49.5,43.3,30.01,West,264,1.0,0.0,79,0.00,,,0.10,WeatherTracker,2013-03-07 04:28:00,
2013-03-06 20:33:00,49.4,43.5,30.01,SSW,211,1.0,0.0,80,0.00,,,0.10,WeatherTracker,2013-03-07 04:33:00,
2013-03-06 20:38:00,49.4,43.5,30.01,WSW,245,2.0,0.0,80,0.00,,,0.10,WeatherTracker,2013-03-07 04:38:00,
2013-03-06 20:43:00,49.3,43.7,30.01,SW,230,0.0,0.0,81,0.00,,,0.10,WeatherTracker,2013-03-07 04:43:00,
2013-03-06 20:48:00,49.3,43.7,30.01,WSW,249,2.0,0.0,81,0.00,,,0.10,WeatherTracker,2013-03-07 04:48:00,
2013-03-06 20:53:00,49.2,43.9,30.01,WSW,237,1.0,0.0,82,0.00,,,0.10,WeatherTracker,2013-03-07 04:53:00,
2013-03-06 20:58:00,49.2,44.3,30.01,SW,236,1.0,0.0,83,0.00,,,0.10,WeatherTracker,2013-03-07 04:58:00,
2013-03-06 21:00:00,49.2,44.3,30.01,WSW,246,2.0,0.0,83,0.00,,,0.10,WeatherTracker,2013-03-07 05:00:00,
2013-03-06 21:05:00,49.1,44.5,30.00,SW,217,1.0,0.0,84,0.00,,,0.10,WeatherTracker,2013-03-07 05:05:00,
2013-03-06 21:11:00,48.9,44.3,30.00,SW,219,3.0,0.0,84,0.00,,,0.10,WeatherTracker,2013-03-07 05:11:00,
2013-03-06 21:16:00,48.8,44.2,30.00,South,184,0.0,0.0,84,0.00,,,0.10,WeatherTracker,2013-03-07 05:16:00,
2013-03-06 21:21:00,48.7,44.1,30.00,SE,141,0.0,0.0,84,0.00,,,0.10,WeatherTracker,2013-03-07 05:21:00,
2013-03-06 21:26:00,48.7,44.4,30.00,SE,129,0.0,0.0,85,0.00,,,0.10,WeatherTracker,2013-03-07 05:26:00,
2013-03-06 21:31:00,48.8,44.2,30.00,ENE,77,3.0,0.0,84,0.00,,,0.10,WeatherTracker,2013-03-07 05:31:00,
2013-03-06 21:36:00,48.9,44.3,30.00,ESE,109,1.0,0.0,84,0.00,,,0.10,WeatherTracker,2013-03-07 05:36:00,
2013-03-06 21:41:00,48.9,44.0,30.00,ENE,68,2.0,0.0,83,0.00,,,0.10,WeatherTracker,2013-03-07 05:41:00,
2013-03-06 21:46:00,48.8,43.9,30.00,NE,56,1.0,0.0,83,0.00,,,0.10,WeatherTracker,2013-03-07 05:46:00,
2013-03-06 21:51:00,48.8,43.9,30.00,ESE,110,0.0,0.0,83,0.00,,,0.10,WeatherTracker,2013-03-07 05:51:00,
2013-03-06 21:56:00,48.7,43.5,30.00,SW,225,0.0,0.0,82,0.00,,,0.10,WeatherTracker,2013-03-07 05:56:00,
2013-03-06 22:01:00,48.6,43.4,30.00,SSW,200,0.0,0.0,82,0.00,,,0.10,WeatherTracker,2013-03-07 06:01:00,
2013-03-06 22:06:00,48.5,43.6,30.00,WSW,238,0.0,0.0,83,0.00,,,0.10,WeatherTracker,2013-03-07 06:06:00,
2013-03-06 22:11:00,48.4,43.5,30.00,South,188,0.0,0.0,83,0.00,,,0.10,WeatherTracker,2013-03-07 06:11:00,
2013-03-06 22:16:00,48.2,43.3,30.00,South,187,0.0,0.0,83,0.00,,,0.10,WeatherTracker,2013-03-07 06:16:00,
2013-03-06 22:21:00,48.2,43.3,30.00,ESE,112,0.0,0.0,83,0.00,,,0.10,WeatherTracker,2013-03-07 06:21:00,
2013-03-06 22:26:00,48.3,43.4,30.00,East,84,0.0,0.0,83,0.00,,,0.10,WeatherTracker,2013-03-07 06:26:00,
2013-03-06 22:31:00,48.1,43.2,29.99,SSE,162,0.0,0.0,83,0.00,,,0.10,WeatherTracker,2013-03-07 06:31:00,
2013-03-06 22:36:00,48.0,43.1,29.99,SSE,162,0.0,0.0,83,0.00,,,0.10,WeatherTracker,2013-03-07 06:36:00,
2013-03-06 22:41:00,47.7,43.1,29.99,SW,214,0.0,0.0,84,0.00,,,0.10,WeatherTracker,2013-03-07 06:41:00,
2013-03-06 22:46:00,47.6,43.0,29.99,SSW,210,0.0,0.0,84,0.00,,,0.10,WeatherTracker,2013-03-07 06:46:00,
2013-03-06 22:51:00,47.5,42.9,29.99,SSW,211,0.0,0.0,84,0.00,,,0.10,WeatherTracker,2013-03-07 06:51:00,
2013-03-06 22:56:00,47.3,43.0,29.99,SSW,211,0.0,0.0,85,0.00,,,0.10,WeatherTracker,2013-03-07 06:56:00,
2013-03-06 23:01:00,47.3,43.0,29.99,SW,214,0.0,0.0,85,0.00,,,0.10,WeatherTracker,2013-03-07 07:01:00,
2013-03-06 23:06:00,47.2,42.9,29.99,SSW,212,0.0,0.0,85,0.00,,,0.10,WeatherTracker,2013-03-07 07:06:00,
2013-03-06 23:11:00,47.0,42.7,29.99,SW,214,0.0,0.0,85,0.00,,,0.10,WeatherTracker,2013-03-07 07:11:00,
2013-03-06 23:16:00,47.1,43.1,29.99,SW,218,0.0,0.0,86,0.00,,,0.10,WeatherTracker,2013-03-07 07:16:00,
2013-03-06 23:22:00,47.0,42.7,29.99,SW,236,1.0,0.0,85,0.00,,,0.10,WeatherTracker,2013-03-07 07:22:00,
2013-03-06 23:27:00,46.9,42.6,29.98,SW,235,0.0,0.0,85,0.00,,,0.10,WeatherTracker,2013-03-07 07:27:00,
2013-03-06 23:32:00,46.9,42.6,29.98,WSW,249,1.0,0.0,85,0.00,,,0.10,WeatherTracker,2013-03-07 07:32:00,
2013-03-06 23:37:00,46.8,42.5,29.98,WSW,244,2.0,0.0,85,0.00,,,0.10,WeatherTracker,2013-03-07 07:37:00,
2013-03-06 23:42:00,46.8,42.5,29.99,SSW,210,0.0,0.0,85,0.00,,,0.10,WeatherTracker,2013-03-07 07:42:00,
2013-03-06 23:47:00,46.7,42.4,29.98,SW,214,0.0,0.0,85,0.00,,,0.10,WeatherTracker,2013-03-07 07:47:00,
2013-03-06 23:52:00,46.7,42.4,29.98,SW,214,0.0,0.0,85,0.00,,,0.10,WeatherTracker,2013-03-07 07:52:00,
2013-03-06 23:57:00,46.6,42.3,29.98,SW,214,0.0,0.0,85,0.00,,,0.10,WeatherTracker,2013-03-07 07:57:00,